sensor_id;sensor_type;location;lat;lon;timestamp;P1;durP1;ratioP1;P2;durP2;ratioP2
57303;SDS011;43150;50.986;18.208;2023-02-17T00:03:55;44.50;;;22.90;;
57303;SDS011;43150;50.986;18.208;2023-02-17T00:06:24;45.70;;;23.00;;
57303;SDS011;43150;50.986;18.208;2023-02-17T00:08:50;43.70;;;21.00;;
57303;SDS011;43150;50.986;18.208;2023-02-17T00:11:16;51.10;;;24.70;;
57303;SDS011;43150;50.986;18.208;2023-02-17T00:13:41;50.10;;;24.20;;
57303;SDS011;43150;50.986;18.208;2023-02-17T00:16:08;60.60;;;31.20;;
57303;SDS011;43150;50.986;18.208;2023-02-17T00:18:34;49.80;;;28.00;;
57303;SDS011;43150;50.986;18.208;2023-02-17T00:21:09;58.40;;;28.60;;
57303;SDS011;43150;50.986;18.208;2023-02-17T00:23:35;70.60;;;31.50;;
57303;SDS011;43150;50.986;18.208;2023-02-17T00:26:03;59.80;;;28.40;;
57303;SDS011;43150;50.986;18.208;2023-02-17T00:28:29;51.90;;;27.90;;
57303;SDS011;43150;50.986;18.208;2023-02-17T00:31:08;62.50;;;29.80;;
57303;SDS011;43150;50.986;18.208;2023-02-17T00:33:34;66.20;;;29.70;;
57303;SDS011;43150;50.986;18.208;2023-02-17T00:36:04;62.60;;;28.50;;
57303;SDS011;43150;50.986;18.208;2023-02-17T00:38:29;56.20;;;26.90;;
57303;SDS011;43150;50.986;18.208;2023-02-17T00:40:57;56.10;;;25.60;;
57303;SDS011;43150;50.986;18.208;2023-02-17T00:43:23;70.10;;;30.60;;
57303;SDS011;43150;50.986;18.208;2023-02-17T00:45:48;57.10;;;27.90;;
57303;SDS011;43150;50.986;18.208;2023-02-17T00:48:14;53.50;;;26.20;;
57303;SDS011;43150;50.986;18.208;2023-02-17T00:50:40;49.50;;;24.60;;
57303;SDS011;43150;50.986;18.208;2023-02-17T00:53:05;56.50;;;25.50;;
57303;SDS011;43150;50.986;18.208;2023-02-17T00:55:31;56.30;;;27.40;;
57303;SDS011;43150;50.986;18.208;2023-02-17T00:57:57;41.40;;;22.00;;
57303;SDS011;43150;50.986;18.208;2023-02-17T01:00:23;48.00;;;24.20;;
57303;SDS011;43150;50.986;18.208;2023-02-17T01:02:48;45.80;;;25.80;;
57303;SDS011;43150;50.986;18.208;2023-02-17T01:05:14;48.70;;;25.10;;
57303;SDS011;43150;50.986;18.208;2023-02-17T01:07:39;49.50;;;24.20;;
57303;SDS011;43150;50.986;18.208;2023-02-17T01:10:06;56.30;;;26.80;;
57303;SDS011;43150;50.986;18.208;2023-02-17T01:12:32;43.20;;;24.20;;
57303;SDS011;43150;50.986;18.208;2023-02-17T01:14:58;44.70;;;24.00;;
57303;SDS011;43150;50.986;18.208;2023-02-17T01:17:24;50.80;;;26.10;;
57303;SDS011;43150;50.986;18.208;2023-02-17T01:19:49;49.70;;;25.40;;
57303;SDS011;43150;50.986;18.208;2023-02-17T01:22:15;46.40;;;25.90;;
57303;SDS011;43150;50.986;18.208;2023-02-17T01:24:40;41.70;;;23.80;;
57303;SDS011;43150;50.986;18.208;2023-02-17T01:27:06;43.10;;;24.00;;
57303;SDS011;43150;50.986;18.208;2023-02-17T01:29:31;40.60;;;23.30;;
57303;SDS011;43150;50.986;18.208;2023-02-17T01:31:57;41.70;;;23.00;;
57303;SDS011;43150;50.986;18.208;2023-02-17T01:34:22;42.70;;;23.50;;
57303;SDS011;43150;50.986;18.208;2023-02-17T01:36:48;45.40;;;25.80;;
57303;SDS011;43150;50.986;18.208;2023-02-17T01:39:14;48.90;;;27.50;;
57303;SDS011;43150;50.986;18.208;2023-02-17T01:41:40;48.70;;;28.40;;
57303;SDS011;43150;50.986;18.208;2023-02-17T01:44:30;48.40;;;26.60;;
57303;SDS011;43150;50.986;18.208;2023-02-17T01:46:53;46.60;;;25.60;;
57303;SDS011;43150;50.986;18.208;2023-02-17T01:49:23;44.10;;;25.50;;
57303;SDS011;43150;50.986;18.208;2023-02-17T01:51:51;44.70;;;24.40;;
57303;SDS011;43150;50.986;18.208;2023-02-17T01:54:19;48.80;;;25.90;;
57303;SDS011;43150;50.986;18.208;2023-02-17T01:56:46;46.10;;;24.20;;
57303;SDS011;43150;50.986;18.208;2023-02-17T01:59:16;44.30;;;22.90;;
57303;SDS011;43150;50.986;18.208;2023-02-17T02:01:43;46.20;;;24.70;;
57303;SDS011;43150;50.986;18.208;2023-02-17T02:04:09;41.40;;;23.90;;
57303;SDS011;43150;50.986;18.208;2023-02-17T02:06:35;44.30;;;24.20;;
57303;SDS011;43150;50.986;18.208;2023-02-17T02:09:03;43.50;;;23.60;;
57303;SDS011;43150;50.986;18.208;2023-02-17T02:11:30;41.70;;;22.90;;
57303;SDS011;43150;50.986;18.208;2023-02-17T02:13:55;39.60;;;21.40;;
57303;SDS011;43150;50.986;18.208;2023-02-17T02:26:41;33.30;;;18.40;;
57303;SDS011;43150;50.986;18.208;2023-02-17T02:34:44;38.60;;;23.60;;
57303;SDS011;43150;50.986;18.208;2023-02-17T02:37:12;33.40;;;19.80;;
57303;SDS011;43150;50.986;18.208;2023-02-17T02:39:39;42.40;;;22.50;;
57303;SDS011;43150;50.986;18.208;2023-02-17T02:42:10;38.60;;;22.50;;
57303;SDS011;43150;50.986;18.208;2023-02-17T02:44:37;37.20;;;21.40;;
57303;SDS011;43150;50.986;18.208;2023-02-17T02:47:04;43.80;;;23.00;;
57303;SDS011;43150;50.986;18.208;2023-02-17T02:49:30;40.40;;;22.90;;
57303;SDS011;43150;50.986;18.208;2023-02-17T02:59:40;35.60;;;20.00;;
57303;SDS011;43150;50.986;18.208;2023-02-17T03:05:15;40.40;;;22.30;;
57303;SDS011;43150;50.986;18.208;2023-02-17T03:07:55;40.10;;;25.00;;
57303;SDS011;43150;50.986;18.208;2023-02-17T03:10:31;42.00;;;22.40;;
57303;SDS011;43150;50.986;18.208;2023-02-17T03:12:56;41.10;;;22.20;;
57303;SDS011;43150;50.986;18.208;2023-02-17T03:15:29;34.70;;;20.80;;
57303;SDS011;43150;50.986;18.208;2023-02-17T03:17:56;36.80;;;22.00;;
57303;SDS011;43150;50.986;18.208;2023-02-17T03:20:22;40.70;;;22.20;;
57303;SDS011;43150;50.986;18.208;2023-02-17T03:22:48;38.50;;;23.90;;
57303;SDS011;43150;50.986;18.208;2023-02-17T03:25:14;36.30;;;22.00;;
57303;SDS011;43150;50.986;18.208;2023-02-17T03:27:39;38.30;;;21.00;;
57303;SDS011;43150;50.986;18.208;2023-02-17T03:30:05;39.80;;;22.60;;
57303;SDS011;43150;50.986;18.208;2023-02-17T03:32:31;35.90;;;21.60;;
57303;SDS011;43150;50.986;18.208;2023-02-17T03:34:57;37.80;;;21.10;;
57303;SDS011;43150;50.986;18.208;2023-02-17T03:37:23;36.70;;;20.40;;
57303;SDS011;43150;50.986;18.208;2023-02-17T03:39:48;37.40;;;22.10;;
57303;SDS011;43150;50.986;18.208;2023-02-17T03:42:14;36.60;;;22.10;;
57303;SDS011;43150;50.986;18.208;2023-02-17T03:44:42;36.00;;;20.70;;
57303;SDS011;43150;50.986;18.208;2023-02-17T03:47:11;38.30;;;20.90;;
57303;SDS011;43150;50.986;18.208;2023-02-17T03:49:38;37.40;;;21.60;;
57303;SDS011;43150;50.986;18.208;2023-02-17T03:52:03;39.90;;;22.70;;
57303;SDS011;43150;50.986;18.208;2023-02-17T03:54:29;35.90;;;21.00;;
57303;SDS011;43150;50.986;18.208;2023-02-17T03:56:54;37.70;;;20.90;;
57303;SDS011;43150;50.986;18.208;2023-02-17T03:59:20;38.60;;;22.00;;
57303;SDS011;43150;50.986;18.208;2023-02-17T04:01:45;43.80;;;24.50;;
57303;SDS011;43150;50.986;18.208;2023-02-17T04:04:11;45.30;;;22.50;;
57303;SDS011;43150;50.986;18.208;2023-02-17T04:06:39;42.50;;;23.60;;
57303;SDS011;43150;50.986;18.208;2023-02-17T04:09:04;47.50;;;25.60;;
57303;SDS011;43150;50.986;18.208;2023-02-17T04:11:31;37.10;;;23.40;;
57303;SDS011;43150;50.986;18.208;2023-02-17T04:13:56;38.80;;;23.70;;
57303;SDS011;43150;50.986;18.208;2023-02-17T04:16:25;41.30;;;25.10;;
57303;SDS011;43150;50.986;18.208;2023-02-17T04:18:50;37.80;;;23.90;;
57303;SDS011;43150;50.986;18.208;2023-02-17T04:21:15;38.90;;;24.90;;
57303;SDS011;43150;50.986;18.208;2023-02-17T04:23:41;38.30;;;24.00;;
57303;SDS011;43150;50.986;18.208;2023-02-17T04:26:07;41.20;;;23.60;;
57303;SDS011;43150;50.986;18.208;2023-02-17T04:28:33;42.30;;;24.60;;
57303;SDS011;43150;50.986;18.208;2023-02-17T04:30:59;37.50;;;22.30;;
57303;SDS011;43150;50.986;18.208;2023-02-17T04:33:25;36.80;;;23.20;;
57303;SDS011;43150;50.986;18.208;2023-02-17T04:35:51;44.60;;;25.80;;
57303;SDS011;43150;50.986;18.208;2023-02-17T04:38:24;41.60;;;23.00;;
57303;SDS011;43150;50.986;18.208;2023-02-17T04:40:49;42.60;;;24.10;;
57303;SDS011;43150;50.986;18.208;2023-02-17T04:43:15;39.80;;;24.20;;
57303;SDS011;43150;50.986;18.208;2023-02-17T04:45:40;40.80;;;25.40;;
57303;SDS011;43150;50.986;18.208;2023-02-17T04:48:06;37.90;;;22.20;;
57303;SDS011;43150;50.986;18.208;2023-02-17T04:50:31;39.20;;;24.30;;
57303;SDS011;43150;50.986;18.208;2023-02-17T04:52:57;37.50;;;22.10;;
57303;SDS011;43150;50.986;18.208;2023-02-17T04:55:23;43.60;;;26.20;;
57303;SDS011;43150;50.986;18.208;2023-02-17T04:57:48;46.30;;;23.60;;
57303;SDS011;43150;50.986;18.208;2023-02-17T05:00:14;42.50;;;25.30;;
57303;SDS011;43150;50.986;18.208;2023-02-17T05:02:39;39.90;;;22.40;;
57303;SDS011;43150;50.986;18.208;2023-02-17T05:05:05;39.40;;;22.80;;
57303;SDS011;43150;50.986;18.208;2023-02-17T05:07:30;41.40;;;24.40;;
57303;SDS011;43150;50.986;18.208;2023-02-17T05:09:56;42.40;;;24.90;;
57303;SDS011;43150;50.986;18.208;2023-02-17T05:12:21;38.80;;;24.00;;
57303;SDS011;43150;50.986;18.208;2023-02-17T05:14:47;34.40;;;22.50;;
57303;SDS011;43150;50.986;18.208;2023-02-17T05:17:12;36.80;;;23.30;;
57303;SDS011;43150;50.986;18.208;2023-02-17T05:19:38;39.30;;;24.10;;
57303;SDS011;43150;50.986;18.208;2023-02-17T05:22:04;40.40;;;24.30;;
57303;SDS011;43150;50.986;18.208;2023-02-17T05:24:29;41.30;;;25.20;;
57303;SDS011;43150;50.986;18.208;2023-02-17T05:27:00;37.40;;;23.90;;
57303;SDS011;43150;50.986;18.208;2023-02-17T05:29:29;39.10;;;23.00;;
57303;SDS011;43150;50.986;18.208;2023-02-17T05:31:55;38.00;;;22.90;;
57303;SDS011;43150;50.986;18.208;2023-02-17T05:34:21;41.80;;;25.30;;
57303;SDS011;43150;50.986;18.208;2023-02-17T05:36:46;38.30;;;22.50;;
57303;SDS011;43150;50.986;18.208;2023-02-17T05:39:12;36.40;;;22.90;;
57303;SDS011;43150;50.986;18.208;2023-02-17T05:41:40;37.00;;;23.50;;
57303;SDS011;43150;50.986;18.208;2023-02-17T05:44:06;46.10;;;26.00;;
57303;SDS011;43150;50.986;18.208;2023-02-17T05:46:31;39.60;;;21.20;;
57303;SDS011;43150;50.986;18.208;2023-02-17T05:48:57;35.50;;;23.20;;
57303;SDS011;43150;50.986;18.208;2023-02-17T05:51:22;36.10;;;22.80;;
57303;SDS011;43150;50.986;18.208;2023-02-17T05:53:48;37.30;;;22.30;;
57303;SDS011;43150;50.986;18.208;2023-02-17T05:56:13;36.50;;;22.00;;
57303;SDS011;43150;50.986;18.208;2023-02-17T05:58:39;36.40;;;21.80;;
57303;SDS011;43150;50.986;18.208;2023-02-17T06:01:08;38.20;;;23.30;;
57303;SDS011;43150;50.986;18.208;2023-02-17T06:03:34;28.50;;;16.80;;
57303;SDS011;43150;50.986;18.208;2023-02-17T06:06:00;39.00;;;23.60;;
57303;SDS011;43150;50.986;18.208;2023-02-17T06:08:25;38.20;;;22.20;;
57303;SDS011;43150;50.986;18.208;2023-02-17T06:10:54;35.10;;;20.70;;
57303;SDS011;43150;50.986;18.208;2023-02-17T06:13:19;39.70;;;22.80;;
57303;SDS011;43150;50.986;18.208;2023-02-17T06:15:45;39.20;;;22.40;;
57303;SDS011;43150;50.986;18.208;2023-02-17T06:18:11;38.50;;;20.90;;
57303;SDS011;43150;50.986;18.208;2023-02-17T06:20:36;37.70;;;21.40;;
57303;SDS011;43150;50.986;18.208;2023-02-17T06:23:02;35.70;;;21.20;;
57303;SDS011;43150;50.986;18.208;2023-02-17T06:25:27;38.40;;;21.10;;
57303;SDS011;43150;50.986;18.208;2023-02-17T06:27:53;38.50;;;20.40;;
57303;SDS011;43150;50.986;18.208;2023-02-17T06:30:19;39.80;;;23.70;;
57303;SDS011;43150;50.986;18.208;2023-02-17T06:32:53;35.80;;;22.40;;
57303;SDS011;43150;50.986;18.208;2023-02-17T06:35:19;36.30;;;19.70;;
57303;SDS011;43150;50.986;18.208;2023-02-17T06:37:44;40.70;;;22.30;;
57303;SDS011;43150;50.986;18.208;2023-02-17T06:40:10;35.60;;;21.50;;
57303;SDS011;43150;50.986;18.208;2023-02-17T06:42:36;35.40;;;20.50;;
57303;SDS011;43150;50.986;18.208;2023-02-17T06:45:01;31.60;;;20.50;;
57303;SDS011;43150;50.986;18.208;2023-02-17T06:47:33;32.60;;;22.10;;
57303;SDS011;43150;50.986;18.208;2023-02-17T06:49:59;39.10;;;22.60;;
57303;SDS011;43150;50.986;18.208;2023-02-17T06:52:31;38.60;;;22.70;;
57303;SDS011;43150;50.986;18.208;2023-02-17T06:54:57;40.30;;;24.90;;
57303;SDS011;43150;50.986;18.208;2023-02-17T06:57:23;46.00;;;25.40;;
57303;SDS011;43150;50.986;18.208;2023-02-17T06:59:49;56.40;;;31.20;;
57303;SDS011;43150;50.986;18.208;2023-02-17T07:02:15;69.20;;;33.60;;
57303;SDS011;43150;50.986;18.208;2023-02-17T07:04:40;73.10;;;35.30;;
57303;SDS011;43150;50.986;18.208;2023-02-17T07:07:06;96.30;;;37.60;;
57303;SDS011;43150;50.986;18.208;2023-02-17T07:09:32;71.20;;;34.60;;
57303;SDS011;43150;50.986;18.208;2023-02-17T07:11:58;61.40;;;35.20;;
57303;SDS011;43150;50.986;18.208;2023-02-17T07:14:24;47.90;;;29.70;;
57303;SDS011;43150;50.986;18.208;2023-02-17T07:16:49;72.70;;;34.70;;
57303;SDS011;43150;50.986;18.208;2023-02-17T07:19:15;59.40;;;29.40;;
57303;SDS011;43150;50.986;18.208;2023-02-17T07:21:41;42.60;;;23.40;;
57303;SDS011;43150;50.986;18.208;2023-02-17T07:24:06;33.80;;;19.90;;
57303;SDS011;43150;50.986;18.208;2023-02-17T07:26:35;46.30;;;24.60;;
57303;SDS011;43150;50.986;18.208;2023-02-17T07:29:01;36.40;;;21.60;;
57303;SDS011;43150;50.986;18.208;2023-02-17T07:31:27;35.70;;;22.10;;
57303;SDS011;43150;50.986;18.208;2023-02-17T07:33:52;33.40;;;20.90;;
57303;SDS011;43150;50.986;18.208;2023-02-17T07:36:18;35.90;;;21.10;;
57303;SDS011;43150;50.986;18.208;2023-02-17T07:38:43;36.90;;;22.40;;
57303;SDS011;43150;50.986;18.208;2023-02-17T07:43:34;40.30;;;24.10;;
57303;SDS011;43150;50.986;18.208;2023-02-17T07:46:00;35.20;;;21.50;;
57303;SDS011;43150;50.986;18.208;2023-02-17T07:48:26;37.50;;;25.10;;
57303;SDS011;43150;50.986;18.208;2023-02-17T07:50:52;39.70;;;24.50;;
57303;SDS011;43150;50.986;18.208;2023-02-17T07:53:17;39.50;;;24.20;;
57303;SDS011;43150;50.986;18.208;2023-02-17T07:55:46;38.90;;;24.10;;
57303;SDS011;43150;50.986;18.208;2023-02-17T07:58:11;42.40;;;25.60;;
57303;SDS011;43150;50.986;18.208;2023-02-17T08:00:37;47.50;;;27.60;;
57303;SDS011;43150;50.986;18.208;2023-02-17T08:03:03;42.00;;;25.70;;
57303;SDS011;43150;50.986;18.208;2023-02-17T08:05:28;32.50;;;21.70;;
57303;SDS011;43150;50.986;18.208;2023-02-17T08:07:54;36.40;;;20.80;;
57303;SDS011;43150;50.986;18.208;2023-02-17T08:10:39;38.00;;;21.90;;
57303;SDS011;43150;50.986;18.208;2023-02-17T08:13:33;33.80;;;18.30;;
57303;SDS011;43150;50.986;18.208;2023-02-17T08:15:59;35.90;;;22.00;;
57303;SDS011;43150;50.986;18.208;2023-02-17T08:18:25;32.60;;;21.00;;
57303;SDS011;43150;50.986;18.208;2023-02-17T08:20:50;32.40;;;21.70;;
57303;SDS011;43150;50.986;18.208;2023-02-17T08:23:18;35.40;;;21.90;;
57303;SDS011;43150;50.986;18.208;2023-02-17T08:25:44;35.20;;;21.90;;
57303;SDS011;43150;50.986;18.208;2023-02-17T08:28:09;30.20;;;19.80;;
57303;SDS011;43150;50.986;18.208;2023-02-17T08:30:35;34.90;;;22.30;;
57303;SDS011;43150;50.986;18.208;2023-02-17T08:33:05;32.50;;;21.80;;
57303;SDS011;43150;50.986;18.208;2023-02-17T08:35:31;34.90;;;22.90;;
57303;SDS011;43150;50.986;18.208;2023-02-17T08:37:57;36.70;;;31.40;;
57303;SDS011;43150;50.986;18.208;2023-02-17T08:40:22;37.90;;;21.50;;
57303;SDS011;43150;50.986;18.208;2023-02-17T08:42:48;35.90;;;22.10;;
57303;SDS011;43150;50.986;18.208;2023-02-17T08:45:13;42.40;;;24.50;;
57303;SDS011;43150;50.986;18.208;2023-02-17T08:47:39;43.60;;;27.20;;
57303;SDS011;43150;50.986;18.208;2023-02-17T08:50:06;36.80;;;23.30;;
57303;SDS011;43150;50.986;18.208;2023-02-17T08:52:33;34.60;;;20.30;;
57303;SDS011;43150;50.986;18.208;2023-02-17T08:54:58;34.60;;;22.80;;
57303;SDS011;43150;50.986;18.208;2023-02-17T08:57:24;30.10;;;21.50;;
57303;SDS011;43150;50.986;18.208;2023-02-17T08:59:51;34.60;;;23.70;;
57303;SDS011;43150;50.986;18.208;2023-02-17T09:02:17;35.90;;;22.70;;
57303;SDS011;43150;50.986;18.208;2023-02-17T09:04:43;35.90;;;23.40;;
57303;SDS011;43150;50.986;18.208;2023-02-17T09:07:09;38.30;;;31.10;;
57303;SDS011;43150;50.986;18.208;2023-02-17T09:09:35;38.70;;;33.30;;
57303;SDS011;43150;50.986;18.208;2023-02-17T09:12:01;43.20;;;25.60;;
57303;SDS011;43150;50.986;18.208;2023-02-17T09:14:26;32.30;;;21.80;;
57303;SDS011;43150;50.986;18.208;2023-02-17T09:16:55;33.70;;;29.80;;
57303;SDS011;43150;50.986;18.208;2023-02-17T09:19:21;35.30;;;30.70;;
57303;SDS011;43150;50.986;18.208;2023-02-17T09:21:47;34.80;;;21.10;;
57303;SDS011;43150;50.986;18.208;2023-02-17T09:24:13;38.50;;;22.90;;
57303;SDS011;43150;50.986;18.208;2023-02-17T09:26:39;33.20;;;29.10;;
57303;SDS011;43150;50.986;18.208;2023-02-17T09:29:05;34.30;;;22.90;;
57303;SDS011;43150;50.986;18.208;2023-02-17T09:31:32;36.00;;;29.40;;
57303;SDS011;43150;50.986;18.208;2023-02-17T09:33:58;32.70;;;20.10;;
57303;SDS011;43150;50.986;18.208;2023-02-17T09:36:25;32.30;;;18.50;;
57303;SDS011;43150;50.986;18.208;2023-02-17T09:38:51;34.20;;;28.90;;
57303;SDS011;43150;50.986;18.208;2023-02-17T09:43:42;29.00;;;17.50;;
57303;SDS011;43150;50.986;18.208;2023-02-17T09:46:09;27.60;;;18.20;;
57303;SDS011;43150;50.986;18.208;2023-02-17T09:48:36;27.50;;;20.10;;
57303;SDS011;43150;50.986;18.208;2023-02-17T09:53:39;28.70;;;19.40;;
57303;SDS011;43150;50.986;18.208;2023-02-17T09:56:08;33.90;;;29.00;;
57303;SDS011;43150;50.986;18.208;2023-02-17T09:58:46;32.10;;;21.40;;
57303;SDS011;43150;50.986;18.208;2023-02-17T10:01:17;30.50;;;19.50;;
57303;SDS011;43150;50.986;18.208;2023-02-17T10:03:45;32.10;;;20.30;;
57303;SDS011;43150;50.986;18.208;2023-02-17T10:11:25;35.70;;;23.30;;
57303;SDS011;43150;50.986;18.208;2023-02-17T10:13:53;34.20;;;23.70;;
57303;SDS011;43150;50.986;18.208;2023-02-17T10:16:22;37.70;;;31.30;;
57303;SDS011;43150;50.986;18.208;2023-02-17T10:19:00;34.30;;;30.20;;
57303;SDS011;43150;50.986;18.208;2023-02-17T10:21:39;35.60;;;30.70;;
57303;SDS011;43150;50.986;18.208;2023-02-17T10:24:08;37.10;;;31.70;;
57303;SDS011;43150;50.986;18.208;2023-02-17T10:26:54;28.00;;;17.60;;
57303;SDS011;43150;50.986;18.208;2023-02-17T10:29:36;34.20;;;22.60;;
57303;SDS011;43150;50.986;18.208;2023-02-17T10:34:53;27.50;;;18.50;;
57303;SDS011;43150;50.986;18.208;2023-02-17T10:37:39;36.70;;;23.80;;
57303;SDS011;43150;50.986;18.208;2023-02-17T10:40:19;38.00;;;22.70;;
57303;SDS011;43150;50.986;18.208;2023-02-17T10:42:45;37.50;;;24.60;;
57303;SDS011;43150;50.986;18.208;2023-02-17T10:45:34;45.30;;;25.10;;
57303;SDS011;43150;50.986;18.208;2023-02-17T10:48:02;44.70;;;27.00;;
57303;SDS011;43150;50.986;18.208;2023-02-17T10:50:42;44.90;;;24.80;;
57303;SDS011;43150;50.986;18.208;2023-02-17T10:53:20;46.20;;;27.20;;
57303;SDS011;43150;50.986;18.208;2023-02-17T10:56:05;44.70;;;25.20;;
57303;SDS011;43150;50.986;18.208;2023-02-17T10:58:38;42.60;;;20.80;;
57303;SDS011;43150;50.986;18.208;2023-02-17T11:01:05;44.70;;;26.40;;
57303;SDS011;43150;50.986;18.208;2023-02-17T11:03:32;46.40;;;37.60;;
57303;SDS011;43150;50.986;18.208;2023-02-17T11:05:59;41.60;;;34.90;;
57303;SDS011;43150;50.986;18.208;2023-02-17T11:08:32;39.50;;;25.10;;
57303;SDS011;43150;50.986;18.208;2023-02-17T11:11:02;33.10;;;22.40;;
57303;SDS011;43150;50.986;18.208;2023-02-17T11:13:31;33.20;;;19.80;;
57303;SDS011;43150;50.986;18.208;2023-02-17T11:15:58;37.10;;;21.80;;
57303;SDS011;43150;50.986;18.208;2023-02-17T11:18:29;34.70;;;21.70;;
57303;SDS011;43150;50.986;18.208;2023-02-17T11:21:06;36.40;;;30.00;;
57303;SDS011;43150;50.986;18.208;2023-02-17T11:23:31;29.00;;;17.60;;
57303;SDS011;43150;50.986;18.208;2023-02-17T11:26:27;30.80;;;21.20;;
57303;SDS011;43150;50.986;18.208;2023-02-17T11:29:20;30.60;;;21.20;;
57303;SDS011;43150;50.986;18.208;2023-02-17T11:32:09;29.60;;;18.90;;
57303;SDS011;43150;50.986;18.208;2023-02-17T11:34:38;31.60;;;20.70;;
57303;SDS011;43150;50.986;18.208;2023-02-17T11:39:46;30.80;;;20.40;;
57303;SDS011;43150;50.986;18.208;2023-02-17T11:42:31;30.80;;;18.60;;
57303;SDS011;43150;50.986;18.208;2023-02-17T11:44:58;31.20;;;27.20;;
57303;SDS011;43150;50.986;18.208;2023-02-17T11:53:02;26.90;;;18.90;;
57303;SDS011;43150;50.986;18.208;2023-02-17T11:55:34;25.50;;;16.70;;
57303;SDS011;43150;50.986;18.208;2023-02-17T12:01:00;24.60;;;17.70;;
57303;SDS011;43150;50.986;18.208;2023-02-17T12:03:51;26.10;;;17.00;;
57303;SDS011;43150;50.986;18.208;2023-02-17T12:14:54;28.80;;;25.50;;
57303;SDS011;43150;50.986;18.208;2023-02-17T12:25:26;24.90;;;18.10;;
57303;SDS011;43150;50.986;18.208;2023-02-17T12:34:21;23.10;;;20.60;;
57303;SDS011;43150;50.986;18.208;2023-02-17T12:36:49;22.50;;;14.90;;
57303;SDS011;43150;50.986;18.208;2023-02-17T12:39:22;17.00;;;12.00;;
57303;SDS011;43150;50.986;18.208;2023-02-17T12:41:59;26.60;;;20.70;;
57303;SDS011;43150;50.986;18.208;2023-02-17T12:44:30;29.90;;;18.60;;
57303;SDS011;43150;50.986;18.208;2023-02-17T12:46:58;21.00;;;17.80;;
57303;SDS011;43150;50.986;18.208;2023-02-17T12:49:35;18.00;;;16.10;;
57303;SDS011;43150;50.986;18.208;2023-02-17T12:54:44;15.70;;;13.80;;
57303;SDS011;43150;50.986;18.208;2023-02-17T12:59:39;14.60;;;12.90;;
57303;SDS011;43150;50.986;18.208;2023-02-17T13:02:09;14.10;;;12.50;;
57303;SDS011;43150;50.986;18.208;2023-02-17T13:04:35;14.50;;;12.80;;
57303;SDS011;43150;50.986;18.208;2023-02-17T13:09:45;13.90;;;9.70;;
57303;SDS011;43150;50.986;18.208;2023-02-17T13:14:48;12.80;;;11.50;;
57303;SDS011;43150;50.986;18.208;2023-02-17T13:17:34;11.90;;;8.10;;
57303;SDS011;43150;50.986;18.208;2023-02-17T13:22:36;10.90;;;7.60;;
57303;SDS011;43150;50.986;18.208;2023-02-17T13:25:02;11.90;;;10.70;;
57303;SDS011;43150;50.986;18.208;2023-02-17T13:29:58;11.10;;;7.60;;
57303;SDS011;43150;50.986;18.208;2023-02-17T13:32:29;10.70;;;9.60;;
57303;SDS011;43150;50.986;18.208;2023-02-17T13:35:02;11.10;;;10.00;;
57303;SDS011;43150;50.986;18.208;2023-02-17T13:39:59;12.40;;;10.10;;
57303;SDS011;43150;50.986;18.208;2023-02-17T13:45:00;11.00;;;7.60;;
57303;SDS011;43150;50.986;18.208;2023-02-17T13:47:35;10.30;;;7.20;;
57303;SDS011;43150;50.986;18.208;2023-02-17T13:50:03;9.60;;;6.40;;
57303;SDS011;43150;50.986;18.208;2023-02-17T13:52:30;11.40;;;10.20;;
57303;SDS011;43150;50.986;18.208;2023-02-17T13:54:57;11.30;;;10.10;;
57303;SDS011;43150;50.986;18.208;2023-02-17T13:57:25;9.90;;;7.30;;
57303;SDS011;43150;50.986;18.208;2023-02-17T14:03:01;11.90;;;10.70;;
57303;SDS011;43150;50.986;18.208;2023-02-17T14:07:50;10.60;;;8.20;;
57303;SDS011;43150;50.986;18.208;2023-02-17T14:10:19;12.30;;;10.80;;
57303;SDS011;43150;50.986;18.208;2023-02-17T14:12:46;10.40;;;7.70;;
57303;SDS011;43150;50.986;18.208;2023-02-17T14:15:17;11.40;;;7.70;;
57303;SDS011;43150;50.986;18.208;2023-02-17T14:17:44;16.20;;;14.60;;
57303;SDS011;43150;50.986;18.208;2023-02-17T14:20:29;11.30;;;8.10;;
57303;SDS011;43150;50.986;18.208;2023-02-17T14:23:04;13.30;;;8.50;;
57303;SDS011;43150;50.986;18.208;2023-02-17T14:25:31;12.80;;;11.60;;
57303;SDS011;43150;50.986;18.208;2023-02-17T14:27:57;15.90;;;14.40;;
57303;SDS011;43150;50.986;18.208;2023-02-17T14:33:01;11.70;;;8.40;;
57303;SDS011;43150;50.986;18.208;2023-02-17T14:35:27;13.40;;;10.10;;
57303;SDS011;43150;50.986;18.208;2023-02-17T14:37:52;14.50;;;8.20;;
57303;SDS011;43150;50.986;18.208;2023-02-17T14:40:22;14.90;;;13.30;;
57303;SDS011;43150;50.986;18.208;2023-02-17T14:42:48;16.00;;;13.90;;
57303;SDS011;43150;50.986;18.208;2023-02-17T14:45:14;14.30;;;12.80;;
57303;SDS011;43150;50.986;18.208;2023-02-17T14:47:41;13.90;;;12.50;;
57303;SDS011;43150;50.986;18.208;2023-02-17T14:50:07;14.00;;;8.50;;
57303;SDS011;43150;50.986;18.208;2023-02-17T14:52:33;18.80;;;9.10;;
57303;SDS011;43150;50.986;18.208;2023-02-17T14:55:05;13.00;;;11.30;;
57303;SDS011;43150;50.986;18.208;2023-02-17T14:57:34;12.50;;;9.20;;
57303;SDS011;43150;50.986;18.208;2023-02-17T15:00:00;10.40;;;7.90;;
57303;SDS011;43150;50.986;18.208;2023-02-17T15:02:25;11.00;;;9.90;;
57303;SDS011;43150;50.986;18.208;2023-02-17T15:04:51;12.30;;;11.00;;
57303;SDS011;43150;50.986;18.208;2023-02-17T15:07:17;11.70;;;10.50;;
57303;SDS011;43150;50.986;18.208;2023-02-17T15:09:44;10.80;;;8.20;;
57303;SDS011;43150;50.986;18.208;2023-02-17T15:12:12;11.80;;;8.00;;
57303;SDS011;43150;50.986;18.208;2023-02-17T15:14:40;12.80;;;11.50;;
57303;SDS011;43150;50.986;18.208;2023-02-17T15:17:06;9.00;;;6.20;;
57303;SDS011;43150;50.986;18.208;2023-02-17T15:19:31;10.60;;;7.60;;
57303;SDS011;43150;50.986;18.208;2023-02-17T15:21:58;10.70;;;7.00;;
57303;SDS011;43150;50.986;18.208;2023-02-17T15:24:25;9.70;;;7.00;;
57303;SDS011;43150;50.986;18.208;2023-02-17T15:26:51;10.30;;;7.40;;
57303;SDS011;43150;50.986;18.208;2023-02-17T15:29:17;9.10;;;7.00;;
57303;SDS011;43150;50.986;18.208;2023-02-17T15:31:44;10.80;;;7.20;;
57303;SDS011;43150;50.986;18.208;2023-02-17T15:34:20;11.80;;;7.80;;
57303;SDS011;43150;50.986;18.208;2023-02-17T15:36:48;12.10;;;9.10;;
57303;SDS011;43150;50.986;18.208;2023-02-17T15:39:15;15.70;;;8.60;;
57303;SDS011;43150;50.986;18.208;2023-02-17T15:41:41;16.60;;;10.20;;
57303;SDS011;43150;50.986;18.208;2023-02-17T15:44:12;18.00;;;12.00;;
57303;SDS011;43150;50.986;18.208;2023-02-17T15:46:46;20.20;;;17.00;;
57303;SDS011;43150;50.986;18.208;2023-02-17T15:49:29;22.00;;;10.90;;
57303;SDS011;43150;50.986;18.208;2023-02-17T15:51:54;19.40;;;11.40;;
57303;SDS011;43150;50.986;18.208;2023-02-17T15:54:20;21.20;;;12.60;;
57303;SDS011;43150;50.986;18.208;2023-02-17T15:56:48;22.50;;;12.10;;
57303;SDS011;43150;50.986;18.208;2023-02-17T15:59:24;21.30;;;11.50;;
57303;SDS011;43150;50.986;18.208;2023-02-17T16:01:51;22.50;;;14.10;;
57303;SDS011;43150;50.986;18.208;2023-02-17T16:04:20;24.50;;;14.00;;